sensor_id;sensor_type;location;lat;lon;timestamp;P1;durP1;ratioP1;P2;durP2;ratioP2
11386;SDS011;5748;53.102;8.456;2023-08-31T00:00:06;1.13;;;1.00;;
11386;SDS011;5748;53.102;8.456;2023-08-31T00:02:35;0.83;;;0.80;;
11386;SDS011;5748;53.102;8.456;2023-08-31T00:05:02;0.70;;;0.70;;
11386;SDS011;5748;53.102;8.456;2023-08-31T00:07:30;0.77;;;0.77;;
11386;SDS011;5748;53.102;8.456;2023-08-31T00:09:58;0.80;;;0.80;;
11386;SDS011;5748;53.102;8.456;2023-08-31T00:12:31;0.70;;;0.70;;
11386;SDS011;5748;53.102;8.456;2023-08-31T00:14:58;0.80;;;0.80;;
11386;SDS011;5748;53.102;8.456;2023-08-31T00:17:25;0.63;;;0.63;;
11386;SDS011;5748;53.102;8.456;2023-08-31T00:19:52;0.67;;;0.67;;
11386;SDS011;5748;53.102;8.456;2023-08-31T00:22:19;0.80;;;0.80;;
11386;SDS011;5748;53.102;8.456;2023-08-31T00:24:46;0.80;;;0.80;;
11386;SDS011;5748;53.102;8.456;2023-08-31T00:27:14;1.00;;;0.90;;
11386;SDS011;5748;53.102;8.456;2023-08-31T00:29:42;0.87;;;0.87;;
11386;SDS011;5748;53.102;8.456;2023-08-31T00:32:11;0.80;;;0.80;;
11386;SDS011;5748;53.102;8.456;2023-08-31T00:34:38;0.70;;;0.70;;
11386;SDS011;5748;53.102;8.456;2023-08-31T00:37:05;1.27;;;0.90;;
11386;SDS011;5748;53.102;8.456;2023-08-31T00:39:33;0.80;;;0.80;;
11386;SDS011;5748;53.102;8.456;2023-08-31T00:42:00;0.70;;;0.67;;
11386;SDS011;5748;53.102;8.456;2023-08-31T00:44:29;0.77;;;0.77;;
11386;SDS011;5748;53.102;8.456;2023-08-31T00:46:56;0.90;;;0.90;;
11386;SDS011;5748;53.102;8.456;2023-08-31T00:49:24;1.50;;;0.90;;
11386;SDS011;5748;53.102;8.456;2023-08-31T00:51:51;1.17;;;0.90;;
11386;SDS011;5748;53.102;8.456;2023-08-31T00:54:18;0.83;;;0.83;;
11386;SDS011;5748;53.102;8.456;2023-08-31T00:56:46;0.90;;;0.90;;
11386;SDS011;5748;53.102;8.456;2023-08-31T00:59:19;0.80;;;0.80;;
11386;SDS011;5748;53.102;8.456;2023-08-31T01:01:49;0.90;;;0.90;;
11386;SDS011;5748;53.102;8.456;2023-08-31T01:04:26;0.80;;;0.80;;
11386;SDS011;5748;53.102;8.456;2023-08-31T01:07:01;1.20;;;1.00;;
11386;SDS011;5748;53.102;8.456;2023-08-31T01:09:39;1.03;;;0.93;;
11386;SDS011;5748;53.102;8.456;2023-08-31T01:12:11;1.03;;;0.90;;
11386;SDS011;5748;53.102;8.456;2023-08-31T01:14:42;1.10;;;1.00;;
11386;SDS011;5748;53.102;8.456;2023-08-31T01:17:15;0.90;;;0.90;;
11386;SDS011;5748;53.102;8.456;2023-08-31T01:19:45;1.20;;;1.00;;
11386;SDS011;5748;53.102;8.456;2023-08-31T01:22:16;0.90;;;0.90;;
11386;SDS011;5748;53.102;8.456;2023-08-31T01:25:07;1.00;;;0.90;;
11386;SDS011;5748;53.102;8.456;2023-08-31T01:27:35;1.03;;;0.93;;
11386;SDS011;5748;53.102;8.456;2023-08-31T01:30:04;1.03;;;0.90;;
11386;SDS011;5748;53.102;8.456;2023-08-31T01:32:32;2.57;;;0.90;;
11386;SDS011;5748;53.102;8.456;2023-08-31T01:35:00;1.03;;;1.00;;
11386;SDS011;5748;53.102;8.456;2023-08-31T01:37:31;0.90;;;0.90;;
11386;SDS011;5748;53.102;8.456;2023-08-31T01:40:18;0.83;;;0.83;;
11386;SDS011;5748;53.102;8.456;2023-08-31T01:42:49;0.80;;;0.80;;
11386;SDS011;5748;53.102;8.456;2023-08-31T01:45:18;1.00;;;0.90;;
11386;SDS011;5748;53.102;8.456;2023-08-31T01:47:47;1.40;;;1.10;;
11386;SDS011;5748;53.102;8.456;2023-08-31T01:50:14;1.00;;;1.00;;
11386;SDS011;5748;53.102;8.456;2023-08-31T01:52:41;1.33;;;0.80;;
11386;SDS011;5748;53.102;8.456;2023-08-31T01:55:08;0.77;;;0.77;;
11386;SDS011;5748;53.102;8.456;2023-08-31T01:57:39;0.90;;;0.90;;
11386;SDS011;5748;53.102;8.456;2023-08-31T02:00:08;1.10;;;1.00;;
11386;SDS011;5748;53.102;8.456;2023-08-31T02:02:36;1.00;;;0.90;;
11386;SDS011;5748;53.102;8.456;2023-08-31T02:05:04;0.80;;;0.80;;
11386;SDS011;5748;53.102;8.456;2023-08-31T02:07:33;1.23;;;1.00;;
11386;SDS011;5748;53.102;8.456;2023-08-31T02:10:00;0.90;;;0.90;;
11386;SDS011;5748;53.102;8.456;2023-08-31T02:12:27;0.80;;;0.80;;
11386;SDS011;5748;53.102;8.456;2023-08-31T02:14:55;1.20;;;1.10;;
11386;SDS011;5748;53.102;8.456;2023-08-31T02:17:22;1.07;;;0.90;;
11386;SDS011;5748;53.102;8.456;2023-08-31T02:19:50;1.00;;;0.93;;
11386;SDS011;5748;53.102;8.456;2023-08-31T02:22:17;0.80;;;0.80;;
11386;SDS011;5748;53.102;8.456;2023-08-31T02:24:45;0.90;;;0.80;;
11386;SDS011;5748;53.102;8.456;2023-08-31T02:39:21;0.60;;;0.60;;
11386;SDS011;5748;53.102;8.456;2023-08-31T02:41:49;0.70;;;0.70;;
11386;SDS011;5748;53.102;8.456;2023-08-31T02:44:17;0.90;;;0.90;;
11386;SDS011;5748;53.102;8.456;2023-08-31T02:46:44;1.07;;;0.97;;
11386;SDS011;5748;53.102;8.456;2023-08-31T02:52:13;0.90;;;0.80;;
11386;SDS011;5748;53.102;8.456;2023-08-31T02:58:39;1.30;;;0.70;;
11386;SDS011;5748;53.102;8.456;2023-08-31T03:01:06;0.90;;;0.90;;
11386;SDS011;5748;53.102;8.456;2023-08-31T03:03:36;0.87;;;0.80;;
11386;SDS011;5748;53.102;8.456;2023-08-31T03:06:03;0.90;;;0.90;;
11386;SDS011;5748;53.102;8.456;2023-08-31T03:08:32;1.17;;;0.80;;
11386;SDS011;5748;53.102;8.456;2023-08-31T03:11:01;0.90;;;0.90;;
11386;SDS011;5748;53.102;8.456;2023-08-31T03:13:28;0.80;;;0.80;;
11386;SDS011;5748;53.102;8.456;2023-08-31T03:15:56;0.80;;;0.80;;
11386;SDS011;5748;53.102;8.456;2023-08-31T03:18:23;0.80;;;0.80;;
11386;SDS011;5748;53.102;8.456;2023-08-31T03:20:50;1.40;;;1.00;;
11386;SDS011;5748;53.102;8.456;2023-08-31T03:23:17;1.00;;;0.90;;
11386;SDS011;5748;53.102;8.456;2023-08-31T03:25:44;1.33;;;0.83;;
11386;SDS011;5748;53.102;8.456;2023-08-31T03:28:13;0.90;;;0.90;;
11386;SDS011;5748;53.102;8.456;2023-08-31T03:30:40;0.90;;;0.90;;
11386;SDS011;5748;53.102;8.456;2023-08-31T03:33:10;1.20;;;1.10;;
11386;SDS011;5748;53.102;8.456;2023-08-31T03:35:37;1.60;;;1.50;;
11386;SDS011;5748;53.102;8.456;2023-08-31T03:38:04;1.17;;;1.07;;
11386;SDS011;5748;53.102;8.456;2023-08-31T03:40:31;1.20;;;1.10;;
11386;SDS011;5748;53.102;8.456;2023-08-31T03:42:59;1.00;;;1.00;;
11386;SDS011;5748;53.102;8.456;2023-08-31T03:45:27;1.23;;;1.00;;
11386;SDS011;5748;53.102;8.456;2023-08-31T03:47:55;1.10;;;1.07;;
11386;SDS011;5748;53.102;8.456;2023-08-31T03:50:22;1.23;;;1.13;;
11386;SDS011;5748;53.102;8.456;2023-08-31T03:52:49;1.00;;;1.00;;
11386;SDS011;5748;53.102;8.456;2023-08-31T03:55:17;1.43;;;1.07;;
11386;SDS011;5748;53.102;8.456;2023-08-31T03:57:43;0.90;;;0.90;;
11386;SDS011;5748;53.102;8.456;2023-08-31T04:00:11;1.30;;;1.20;;
11386;SDS011;5748;53.102;8.456;2023-08-31T04:02:41;1.00;;;1.00;;
11386;SDS011;5748;53.102;8.456;2023-08-31T04:05:09;1.30;;;1.00;;
11386;SDS011;5748;53.102;8.456;2023-08-31T04:07:36;1.20;;;1.10;;
11386;SDS011;5748;53.102;8.456;2023-08-31T04:10:03;1.63;;;1.20;;
11386;SDS011;5748;53.102;8.456;2023-08-31T04:12:31;1.30;;;1.20;;
11386;SDS011;5748;53.102;8.456;2023-08-31T04:14:59;1.10;;;1.03;;
11386;SDS011;5748;53.102;8.456;2023-08-31T04:17:27;1.67;;;1.20;;
11386;SDS011;5748;53.102;8.456;2023-08-31T04:19:56;1.50;;;1.20;;
11386;SDS011;5748;53.102;8.456;2023-08-31T04:22:23;1.17;;;1.07;;
11386;SDS011;5748;53.102;8.456;2023-08-31T04:24:52;1.30;;;1.20;;
11386;SDS011;5748;53.102;8.456;2023-08-31T04:27:19;1.30;;;1.17;;
11386;SDS011;5748;53.102;8.456;2023-08-31T04:29:46;1.40;;;1.30;;
11386;SDS011;5748;53.102;8.456;2023-08-31T04:32:14;2.30;;;2.05;;
11386;SDS011;5748;53.102;8.456;2023-08-31T04:34:42;1.50;;;1.40;;
11386;SDS011;5748;53.102;8.456;2023-08-31T04:44:35;2.07;;;1.40;;
11386;SDS011;5748;53.102;8.456;2023-08-31T04:47:02;2.13;;;1.30;;
11386;SDS011;5748;53.102;8.456;2023-08-31T04:49:30;1.30;;;1.20;;
11386;SDS011;5748;53.102;8.456;2023-08-31T04:51:56;1.50;;;1.37;;
11386;SDS011;5748;53.102;8.456;2023-08-31T04:54:23;1.13;;;1.10;;
11386;SDS011;5748;53.102;8.456;2023-08-31T04:56:51;1.70;;;1.43;;
11386;SDS011;5748;53.102;8.456;2023-08-31T04:59:18;1.80;;;1.60;;
11386;SDS011;5748;53.102;8.456;2023-08-31T05:01:46;1.40;;;1.30;;
11386;SDS011;5748;53.102;8.456;2023-08-31T05:04:14;1.50;;;1.40;;
11386;SDS011;5748;53.102;8.456;2023-08-31T05:06:41;1.40;;;1.30;;
11386;SDS011;5748;53.102;8.456;2023-08-31T05:09:08;1.50;;;1.40;;
11386;SDS011;5748;53.102;8.456;2023-08-31T05:11:36;1.60;;;1.50;;
11386;SDS011;5748;53.102;8.456;2023-08-31T05:14:02;1.43;;;1.33;;
11386;SDS011;5748;53.102;8.456;2023-08-31T05:16:29;1.60;;;1.50;;
11386;SDS011;5748;53.102;8.456;2023-08-31T05:18:58;1.60;;;1.50;;
11386;SDS011;5748;53.102;8.456;2023-08-31T05:21:25;1.20;;;1.20;;
11386;SDS011;5748;53.102;8.456;2023-08-31T05:23:52;1.60;;;1.50;;
11386;SDS011;5748;53.102;8.456;2023-08-31T05:26:19;1.50;;;1.40;;
11386;SDS011;5748;53.102;8.456;2023-08-31T05:28:46;1.53;;;1.43;;
11386;SDS011;5748;53.102;8.456;2023-08-31T05:31:13;1.50;;;1.40;;
11386;SDS011;5748;53.102;8.456;2023-08-31T05:33:42;1.40;;;1.30;;
11386;SDS011;5748;53.102;8.456;2023-08-31T05:36:10;1.70;;;1.60;;
11386;SDS011;5748;53.102;8.456;2023-08-31T05:38:37;1.60;;;1.50;;
11386;SDS011;5748;53.102;8.456;2023-08-31T05:41:08;1.53;;;1.33;;
11386;SDS011;5748;53.102;8.456;2023-08-31T05:43:36;1.57;;;1.47;;
11386;SDS011;5748;53.102;8.456;2023-08-31T05:46:05;1.80;;;1.70;;
11386;SDS011;5748;53.102;8.456;2023-08-31T05:48:46;2.37;;;1.30;;
11386;SDS011;5748;53.102;8.456;2023-08-31T05:51:18;1.57;;;1.47;;
11386;SDS011;5748;53.102;8.456;2023-08-31T05:53:46;1.50;;;1.40;;
11386;SDS011;5748;53.102;8.456;2023-08-31T05:56:13;1.83;;;1.60;;
11386;SDS011;5748;53.102;8.456;2023-08-31T05:58:41;1.37;;;1.20;;
11386;SDS011;5748;53.102;8.456;2023-08-31T06:01:07;1.47;;;1.37;;
11386;SDS011;5748;53.102;8.456;2023-08-31T06:03:34;1.33;;;1.23;;
11386;SDS011;5748;53.102;8.456;2023-08-31T06:06:02;1.60;;;1.50;;
11386;SDS011;5748;53.102;8.456;2023-08-31T06:08:31;1.50;;;1.40;;
11386;SDS011;5748;53.102;8.456;2023-08-31T06:10:58;1.33;;;1.23;;
11386;SDS011;5748;53.102;8.456;2023-08-31T06:13:25;1.70;;;1.60;;
11386;SDS011;5748;53.102;8.456;2023-08-31T06:15:52;2.20;;;2.00;;
11386;SDS011;5748;53.102;8.456;2023-08-31T06:18:20;1.80;;;1.60;;
11386;SDS011;5748;53.102;8.456;2023-08-31T06:20:48;1.60;;;1.50;;
11386;SDS011;5748;53.102;8.456;2023-08-31T06:23:16;2.17;;;1.63;;
11386;SDS011;5748;53.102;8.456;2023-08-31T06:25:44;1.60;;;1.50;;
11386;SDS011;5748;53.102;8.456;2023-08-31T06:28:11;1.70;;;1.60;;
11386;SDS011;5748;53.102;8.456;2023-08-31T06:30:38;1.60;;;1.50;;
11386;SDS011;5748;53.102;8.456;2023-08-31T06:33:11;2.20;;;2.00;;
11386;SDS011;5748;53.102;8.456;2023-08-31T06:35:38;1.70;;;1.60;;
11386;SDS011;5748;53.102;8.456;2023-08-31T06:38:05;1.70;;;1.60;;
11386;SDS011;5748;53.102;8.456;2023-08-31T06:40:32;2.23;;;2.03;;
11386;SDS011;5748;53.102;8.456;2023-08-31T06:43:00;2.00;;;1.80;;
11386;SDS011;5748;53.102;8.456;2023-08-31T06:45:28;2.00;;;1.90;;
11386;SDS011;5748;53.102;8.456;2023-08-31T06:47:55;1.73;;;1.60;;
11386;SDS011;5748;53.102;8.456;2023-08-31T06:50:22;1.40;;;1.30;;
11386;SDS011;5748;53.102;8.456;2023-08-31T06:52:49;1.50;;;1.40;;
11386;SDS011;5748;53.102;8.456;2023-08-31T06:55:16;1.50;;;1.40;;
11386;SDS011;5748;53.102;8.456;2023-08-31T06:57:43;1.70;;;1.60;;
11386;SDS011;5748;53.102;8.456;2023-08-31T07:00:12;1.40;;;1.30;;
11386;SDS011;5748;53.102;8.456;2023-08-31T07:02:40;1.70;;;1.60;;
11386;SDS011;5748;53.102;8.456;2023-08-31T07:05:09;1.93;;;1.80;;
11386;SDS011;5748;53.102;8.456;2023-08-31T07:07:37;1.53;;;1.43;;
11386;SDS011;5748;53.102;8.456;2023-08-31T07:10:04;1.87;;;1.77;;
11386;SDS011;5748;53.102;8.456;2023-08-31T07:12:32;1.67;;;1.57;;
11386;SDS011;5748;53.102;8.456;2023-08-31T07:14:59;1.80;;;1.70;;
11386;SDS011;5748;53.102;8.456;2023-08-31T07:17:28;1.70;;;1.60;;
11386;SDS011;5748;53.102;8.456;2023-08-31T07:19:55;1.77;;;1.67;;
11386;SDS011;5748;53.102;8.456;2023-08-31T07:22:22;1.80;;;1.70;;
11386;SDS011;5748;53.102;8.456;2023-08-31T07:24:49;3.00;;;1.90;;
11386;SDS011;5748;53.102;8.456;2023-08-31T07:27:16;1.67;;;1.57;;
11386;SDS011;5748;53.102;8.456;2023-08-31T07:29:43;1.50;;;1.40;;
11386;SDS011;5748;53.102;8.456;2023-08-31T07:32:11;1.57;;;1.47;;
11386;SDS011;5748;53.102;8.456;2023-08-31T07:34:39;1.57;;;1.47;;
11386;SDS011;5748;53.102;8.456;2023-08-31T07:37:06;1.40;;;1.30;;
11386;SDS011;5748;53.102;8.456;2023-08-31T07:39:34;1.77;;;1.47;;
11386;SDS011;5748;53.102;8.456;2023-08-31T07:42:01;1.50;;;1.40;;
11386;SDS011;5748;53.102;8.456;2023-08-31T07:44:29;1.43;;;1.33;;
11386;SDS011;5748;53.102;8.456;2023-08-31T07:46:56;2.43;;;1.50;;
11386;SDS011;5748;53.102;8.456;2023-08-31T07:49:23;1.40;;;1.30;;
11386;SDS011;5748;53.102;8.456;2023-08-31T07:51:52;1.60;;;1.50;;
11386;SDS011;5748;53.102;8.456;2023-08-31T07:54:20;1.10;;;1.10;;
11386;SDS011;5748;53.102;8.456;2023-08-31T07:56:47;1.50;;;1.40;;
11386;SDS011;5748;53.102;8.456;2023-08-31T07:59:17;1.30;;;1.20;;
11386;SDS011;5748;53.102;8.456;2023-08-31T08:01:47;1.43;;;1.33;;
11386;SDS011;5748;53.102;8.456;2023-08-31T08:04:14;1.33;;;1.23;;
11386;SDS011;5748;53.102;8.456;2023-08-31T08:06:44;1.50;;;1.40;;
11386;SDS011;5748;53.102;8.456;2023-08-31T08:09:12;1.40;;;1.30;;
11386;SDS011;5748;53.102;8.456;2023-08-31T08:11:40;1.60;;;1.50;;
11386;SDS011;5748;53.102;8.456;2023-08-31T08:14:08;1.60;;;1.50;;
11386;SDS011;5748;53.102;8.456;2023-08-31T08:16:35;1.40;;;1.30;;
11386;SDS011;5748;53.102;8.456;2023-08-31T08:19:02;1.20;;;1.10;;
11386;SDS011;5748;53.102;8.456;2023-08-31T08:21:29;1.40;;;1.30;;
11386;SDS011;5748;53.102;8.456;2023-08-31T08:23:56;1.40;;;1.30;;
11386;SDS011;5748;53.102;8.456;2023-08-31T08:26:25;1.27;;;1.17;;
11386;SDS011;5748;53.102;8.456;2023-08-31T08:28:52;1.27;;;1.10;;
11386;SDS011;5748;53.102;8.456;2023-08-31T08:31:19;1.63;;;1.30;;
11386;SDS011;5748;53.102;8.456;2023-08-31T08:33:46;1.30;;;1.20;;
11386;SDS011;5748;53.102;8.456;2023-08-31T08:36:13;1.10;;;1.00;;
11386;SDS011;5748;53.102;8.456;2023-08-31T08:38:41;1.27;;;1.17;;
11386;SDS011;5748;53.102;8.456;2023-08-31T08:41:08;1.47;;;1.10;;
11386;SDS011;5748;53.102;8.456;2023-08-31T08:43:37;1.27;;;1.17;;
11386;SDS011;5748;53.102;8.456;2023-08-31T08:46:09;1.10;;;1.00;;
11386;SDS011;5748;53.102;8.456;2023-08-31T08:48:36;0.97;;;0.97;;
11386;SDS011;5748;53.102;8.456;2023-08-31T08:51:04;1.20;;;0.90;;
11386;SDS011;5748;53.102;8.456;2023-08-31T08:53:32;1.20;;;1.10;;
11386;SDS011;5748;53.102;8.456;2023-08-31T08:56:02;1.97;;;1.10;;
11386;SDS011;5748;53.102;8.456;2023-08-31T08:58:30;0.97;;;0.90;;
11386;SDS011;5748;53.102;8.456;2023-08-31T09:00:58;0.90;;;0.90;;
11386;SDS011;5748;53.102;8.456;2023-08-31T09:03:25;0.97;;;0.80;;
11386;SDS011;5748;53.102;8.456;2023-08-31T09:05:52;0.93;;;0.80;;
11386;SDS011;5748;53.102;8.456;2023-08-31T09:08:25;1.00;;;1.00;;
11386;SDS011;5748;53.102;8.456;2023-08-31T09:10:54;0.70;;;0.70;;
11386;SDS011;5748;53.102;8.456;2023-08-31T09:13:25;0.80;;;0.80;;
11386;SDS011;5748;53.102;8.456;2023-08-31T09:15:54;0.70;;;0.70;;
11386;SDS011;5748;53.102;8.456;2023-08-31T09:18:26;0.80;;;0.80;;
11386;SDS011;5748;53.102;8.456;2023-08-31T09:20:56;1.67;;;0.90;;
11386;SDS011;5748;53.102;8.456;2023-08-31T09:23:24;0.80;;;0.80;;
11386;SDS011;5748;53.102;8.456;2023-08-31T09:25:52;1.00;;;0.80;;
11386;SDS011;5748;53.102;8.456;2023-08-31T09:28:20;0.75;;;0.70;;
11386;SDS011;5748;53.102;8.456;2023-08-31T09:30:51;1.05;;;0.70;;
11386;SDS011;5748;53.102;8.456;2023-08-31T09:33:19;0.60;;;0.60;;
11386;SDS011;5748;53.102;8.456;2023-08-31T09:35:49;0.98;;;0.70;;
11386;SDS011;5748;53.102;8.456;2023-08-31T09:38:17;1.50;;;0.60;;
11386;SDS011;5748;53.102;8.456;2023-08-31T09:40:44;0.80;;;0.70;;
11386;SDS011;5748;53.102;8.456;2023-08-31T09:43:12;1.02;;;0.52;;
11386;SDS011;5748;53.102;8.456;2023-08-31T09:45:45;1.05;;;0.70;;
11386;SDS011;5748;53.102;8.456;2023-08-31T09:48:13;0.80;;;0.77;;
11386;SDS011;5748;53.102;8.456;2023-08-31T09:50:42;0.40;;;0.40;;
11386;SDS011;5748;53.102;8.456;2023-08-31T09:53:12;0.30;;;0.30;;
11386;SDS011;5748;53.102;8.456;2023-08-31T09:55:39;0.57;;;0.57;;
11386;SDS011;5748;53.102;8.456;2023-08-31T09:58:07;0.40;;;0.40;;
11386;SDS011;5748;53.102;8.456;2023-08-31T10:00:35;0.43;;;0.43;;
11386;SDS011;5748;53.102;8.456;2023-08-31T10:03:03;0.40;;;0.40;;
11386;SDS011;5748;53.102;8.456;2023-08-31T10:05:31;0.55;;;0.40;;
11386;SDS011;5748;53.102;8.456;2023-08-31T10:07:58;0.98;;;0.70;;
11386;SDS011;5748;53.102;8.456;2023-08-31T10:10:28;0.50;;;0.40;;
11386;SDS011;5748;53.102;8.456;2023-08-31T10:12:56;0.30;;;0.30;;
11386;SDS011;5748;53.102;8.456;2023-08-31T10:15:30;0.85;;;0.45;;
11386;SDS011;5748;53.102;8.456;2023-08-31T10:18:10;0.60;;;0.30;;
11386;SDS011;5748;53.102;8.456;2023-08-31T10:20:39;0.40;;;0.40;;
11386;SDS011;5748;53.102;8.456;2023-08-31T10:23:29;0.43;;;0.40;;
11386;SDS011;5748;53.102;8.456;2023-08-31T10:26:15;0.60;;;0.47;;
11386;SDS011;5748;53.102;8.456;2023-08-31T10:28:53;1.52;;;0.40;;
11386;SDS011;5748;53.102;8.456;2023-08-31T10:36:34;0.20;;;0.20;;
11386;SDS011;5748;53.102;8.456;2023-08-31T10:39:06;0.40;;;0.20;;
11386;SDS011;5748;53.102;8.456;2023-08-31T10:41:40;0.38;;;0.20;;
11386;SDS011;5748;53.102;8.456;2023-08-31T10:44:19;0.20;;;0.20;;
11386;SDS011;5748;53.102;8.456;2023-08-31T10:46:47;0.25;;;0.25;;
11386;SDS011;5748;53.102;8.456;2023-08-31T10:49:16;0.30;;;0.20;;
11386;SDS011;5748;53.102;8.456;2023-08-31T10:51:45;0.57;;;0.40;;
11386;SDS011;5748;53.102;8.456;2023-08-31T10:54:19;0.30;;;0.30;;
11386;SDS011;5748;53.102;8.456;2023-08-31T10:57:02;1.00;;;0.28;;
11386;SDS011;5748;53.102;8.456;2023-08-31T10:59:41;0.20;;;0.20;;
11386;SDS011;5748;53.102;8.456;2023-08-31T11:02:10;0.20;;;0.20;;
11386;SDS011;5748;53.102;8.456;2023-08-31T11:04:53;0.30;;;0.25;;
11386;SDS011;5748;53.102;8.456;2023-08-31T11:07:24;0.20;;;0.20;;
11386;SDS011;5748;53.102;8.456;2023-08-31T11:10:05;0.30;;;0.30;;
11386;SDS011;5748;53.102;8.456;2023-08-31T11:12:43;0.32;;;0.30;;
11386;SDS011;5748;53.102;8.456;2023-08-31T11:15:12;0.45;;;0.40;;
11386;SDS011;5748;53.102;8.456;2023-08-31T11:17:40;0.30;;;0.30;;
11386;SDS011;5748;53.102;8.456;2023-08-31T11:20:08;0.40;;;0.20;;
11386;SDS011;5748;53.102;8.456;2023-08-31T11:22:39;0.93;;;0.30;;
11386;SDS011;5748;53.102;8.456;2023-08-31T11:25:08;0.60;;;0.40;;
11386;SDS011;5748;53.102;8.456;2023-08-31T11:27:37;1.70;;;0.40;;
11386;SDS011;5748;53.102;8.456;2023-08-31T11:30:12;0.40;;;0.35;;
11386;SDS011;5748;53.102;8.456;2023-08-31T11:32:43;0.30;;;0.30;;
11386;SDS011;5748;53.102;8.456;2023-08-31T11:35:12;0.63;;;0.40;;
11386;SDS011;5748;53.102;8.456;2023-08-31T11:37:41;0.32;;;0.32;;
11386;SDS011;5748;53.102;8.456;2023-08-31T11:40:08;0.73;;;0.60;;
11386;SDS011;5748;53.102;8.456;2023-08-31T11:42:35;0.45;;;0.45;;
11386;SDS011;5748;53.102;8.456;2023-08-31T11:45:04;0.68;;;0.40;;
11386;SDS011;5748;53.102;8.456;2023-08-31T11:47:34;0.47;;;0.40;;
11386;SDS011;5748;53.102;8.456;2023-08-31T11:50:01;0.40;;;0.40;;
11386;SDS011;5748;53.102;8.456;2023-08-31T11:52:30;0.35;;;0.35;;
11386;SDS011;5748;53.102;8.456;2023-08-31T11:54:57;0.38;;;0.38;;
11386;SDS011;5748;53.102;8.456;2023-08-31T11:57:25;0.52;;;0.50;;
11386;SDS011;5748;53.102;8.456;2023-08-31T11:59:54;0.88;;;0.68;;
11386;SDS011;5748;53.102;8.456;2023-08-31T12:02:22;0.57;;;0.40;;
11386;SDS011;5748;53.102;8.456;2023-08-31T12:04:50;0.40;;;0.40;;
11386;SDS011;5748;53.102;8.456;2023-08-31T12:07:17;0.47;;;0.40;;
11386;SDS011;5748;53.102;8.456;2023-08-31T12:09:45;0.55;;;0.40;;
11386;SDS011;5748;53.102;8.456;2023-08-31T12:12:13;0.57;;;0.30;;
11386;SDS011;5748;53.102;8.456;2023-08-31T12:14:43;0.50;;;0.30;;
11386;SDS011;5748;53.102;8.456;2023-08-31T12:17:10;0.35;;;0.30;;
11386;SDS011;5748;53.102;8.456;2023-08-31T12:19:37;0.30;;;0.30;;
11386;SDS011;5748;53.102;8.456;2023-08-31T12:22:06;0.20;;;0.20;;
11386;SDS011;5748;53.102;8.456;2023-08-31T12:24:37;0.40;;;0.40;;
11386;SDS011;5748;53.102;8.456;2023-08-31T12:27:05;0.30;;;0.30;;
11386;SDS011;5748;53.102;8.456;2023-08-31T12:29:32;0.30;;;0.30;;
11386;SDS011;5748;53.102;8.456;2023-08-31T12:31:59;0.30;;;0.30;;
11386;SDS011;5748;53.102;8.456;2023-08-31T12:34:26;0.30;;;0.30;;
11386;SDS011;5748;53.102;8.456;2023-08-31T12:36:53;0.30;;;0.30;;
11386;SDS011;5748;53.102;8.456;2023-08-31T12:39:26;0.45;;;0.40;;
11386;SDS011;5748;53.102;8.456;2023-08-31T12:41:53;0.20;;;0.20;;
11386;SDS011;5748;53.102;8.456;2023-08-31T12:44:20;0.20;;;0.20;;
11386;SDS011;5748;53.102;8.456;2023-08-31T12:46:48;0.20;;;0.20;;
11386;SDS011;5748;53.102;8.456;2023-08-31T12:49:14;0.20;;;0.20;;
11386;SDS011;5748;53.102;8.456;2023-08-31T12:51:42;0.30;;;0.30;;
11386;SDS011;5748;53.102;8.456;2023-08-31T12:54:09;0.20;;;0.20;;
11386;SDS011;5748;53.102;8.456;2023-08-31T12:56:37;0.43;;;0.40;;
11386;SDS011;5748;53.102;8.456;2023-08-31T12:59:04;0.30;;;0.30;;
11386;SDS011;5748;53.102;8.456;2023-08-31T13:01:31;0.13;;;0.10;;
11386;SDS011;5748;53.102;8.456;2023-08-31T13:03:59;0.55;;;0.32;;
11386;SDS011;5748;53.102;8.456;2023-08-31T13:06:26;0.30;;;0.30;;
11386;SDS011;5748;53.102;8.456;2023-08-31T13:08:53;0.30;;;0.28;;
11386;SDS011;5748;53.102;8.456;2023-08-31T13:11:20;0.20;;;0.20;;
11386;SDS011;5748;53.102;8.456;2023-08-31T13:13:50;0.22;;;0.20;;
11386;SDS011;5748;53.102;8.456;2023-08-31T13:16:17;0.40;;;0.30;;
11386;SDS011;5748;53.102;8.456;2023-08-31T13:18:47;0.20;;;0.20;;
11386;SDS011;5748;53.102;8.456;2023-08-31T13:21:14;0.25;;;0.25;;
11386;SDS011;5748;53.102;8.456;2023-08-31T13:23:41;0.30;;;0.30;;
11386;SDS011;5748;53.102;8.456;2023-08-31T13:26:09;0.30;;;0.30;;
11386;SDS011;5748;53.102;8.456;2023-08-31T13:28:37;0.20;;;0.20;;
11386;SDS011;5748;53.102;8.456;2023-08-31T13:31:05;0.75;;;0.30;;
11386;SDS011;5748;53.102;8.456;2023-08-31T13:33:32;0.20;;;0.20;;
11386;SDS011;5748;53.102;8.456;2023-08-31T13:35:59;0.30;;;0.30;;
11386;SDS011;5748;53.102;8.456;2023-08-31T13:38:26;0.28;;;0.28;;
11386;SDS011;5748;53.102;8.456;2023-08-31T13:40:54;0.25;;;0.25;;
11386;SDS011;5748;53.102;8.456;2023-08-31T13:43:22;0.35;;;0.30;;
11386;SDS011;5748;53.102;8.456;2023-08-31T13:45:49;0.32;;;0.30;;
11386;SDS011;5748;53.102;8.456;2023-08-31T13:48:18;0.30;;;0.30;;
11386;SDS011;5748;53.102;8.456;2023-08-31T13:50:47;0.32;;;0.30;;
11386;SDS011;5748;53.102;8.456;2023-08-31T13:53:14;0.30;;;0.30;;
11386;SDS011;5748;53.102;8.456;2023-08-31T13:55:41;0.20;;;0.20;;
11386;SDS011;5748;53.102;8.456;2023-08-31T13:58:08;0.30;;;0.30;;
11386;SDS011;5748;53.102;8.456;2023-08-31T14:00:35;0.38;;;0.38;;
11386;SDS011;5748;53.102;8.456;2023-08-31T14:03:03;0.30;;;0.30;;
11386;SDS011;5748;53.102;8.456;2023-08-31T14:05:32;0.30;;;0.30;;
11386;SDS011;5748;53.102;8.456;2023-08-31T14:07:59;0.30;;;0.30;;
11386;SDS011;5748;53.102;8.456;2023-08-31T14:10:29;0.40;;;0.38;;
11386;SDS011;5748;53.102;8.456;2023-08-31T14:12:57;0.30;;;0.30;;
11386;SDS011;5748;53.102;8.456;2023-08-31T14:15:24;0.30;;;0.30;;
11386;SDS011;5748;53.102;8.456;2023-08-31T14:17:52;0.28;;;0.28;;
11386;SDS011;5748;53.102;8.456;2023-08-31T14:20:19;0.40;;;0.30;;
11386;SDS011;5748;53.102;8.456;2023-08-31T14:22:48;0.40;;;0.40;;
11386;SDS011;5748;53.102;8.456;2023-08-31T14:25:15;0.20;;;0.20;;
11386;SDS011;5748;53.102;8.456;2023-08-31T14:27:43;0.47;;;0.37;;
11386;SDS011;5748;53.102;8.456;2023-08-31T14:30:10;0.30;;;0.30;;
11386;SDS011;5748;53.102;8.456;2023-08-31T14:32:37;0.30;;;0.30;;
11386;SDS011;5748;53.102;8.456;2023-08-31T14:35:04;0.60;;;0.47;;
11386;SDS011;5748;53.102;8.456;2023-08-31T14:37:32;0.30;;;0.30;;
11386;SDS011;5748;53.102;8.456;2023-08-31T14:40:01;0.40;;;0.40;;
11386;SDS011;5748;53.102;8.456;2023-08-31T14:42:32;0.43;;;0.37;;
11386;SDS011;5748;53.102;8.456;2023-08-31T14:44:59;0.40;;;0.40;;
11386;SDS011;5748;53.102;8.456;2023-08-31T14:47:26;0.40;;;0.40;;
11386;SDS011;5748;53.102;8.456;2023-08-31T14:49:54;0.40;;;0.40;;
11386;SDS011;5748;53.102;8.456;2023-08-31T14:52:21;0.20;;;0.20;;
11386;SDS011;5748;53.102;8.456;2023-08-31T14:54:48;0.30;;;0.30;;
11386;SDS011;5748;53.102;8.456;2023-08-31T14:57:17;1.20;;;0.50;;
11386;SDS011;5748;53.102;8.456;2023-08-31T14:59:44;0.33;;;0.33;;
11386;SDS011;5748;53.102;8.456;2023-08-31T15:02:11;0.30;;;0.30;;
11386;SDS011;5748;53.102;8.456;2023-08-31T15:04:40;0.43;;;0.33;;
11386;SDS011;5748;53.102;8.456;2023-08-31T15:07:08;0.30;;;0.30;;
11386;SDS011;5748;53.102;8.456;2023-08-31T15:09:35;0.30;;;0.30;;
11386;SDS011;5748;53.102;8.456;2023-08-31T15:12:02;0.40;;;0.40;;
11386;SDS011;5748;53.102;8.456;2023-08-31T15:14:31;0.30;;;0.30;;
11386;SDS011;5748;53.102;8.456;2023-08-31T15:16:58;0.40;;;0.40;;
11386;SDS011;5748;53.102;8.456;2023-08-31T15:19:25;0.30;;;0.30;;
11386;SDS011;5748;53.102;8.456;2023-08-31T15:21:52;0.40;;;0.40;;
11386;SDS011;5748;53.102;8.456;2023-08-31T15:24:20;0.30;;;0.30;;
11386;SDS011;5748;53.102;8.456;2023-08-31T15:26:47;0.30;;;0.30;;
11386;SDS011;5748;53.102;8.456;2023-08-31T15:29:14;0.40;;;0.40;;
11386;SDS011;5748;53.102;8.456;2023-08-31T15:31:42;0.40;;;0.40;;
11386;SDS011;5748;53.102;8.456;2023-08-31T15:34:09;0.40;;;0.40;;
11386;SDS011;5748;53.102;8.456;2023-08-31T15:36:36;0.35;;;0.35;;
11386;SDS011;5748;53.102;8.456;2023-08-31T15:39:04;0.40;;;0.40;;